sensor_id;sensor_type;location;lat;lon;timestamp;P1;durP1;ratioP1;P2;durP2;ratioP2
64244;SDS011;50584;29.058;-110.966;2023-08-20T00:01:21;6.38;;;2.85;;
64244;SDS011;50584;29.058;-110.966;2023-08-20T00:03:48;5.07;;;3.03;;
64244;SDS011;50584;29.058;-110.966;2023-08-20T00:06:14;1.65;;;1.55;;
64244;SDS011;50584;29.058;-110.966;2023-08-20T00:08:40;2.22;;;1.60;;
64244;SDS011;50584;29.058;-110.966;2023-08-20T00:11:05;3.92;;;3.60;;
64244;SDS011;50584;29.058;-110.966;2023-08-20T00:13:31;1.63;;;1.52;;
64244;SDS011;50584;29.058;-110.966;2023-08-20T00:15:57;1.40;;;1.30;;
64244;SDS011;50584;29.058;-110.966;2023-08-20T00:18:23;1.92;;;1.80;;
64244;SDS011;50584;29.058;-110.966;2023-08-20T00:20:49;3.38;;;1.80;;
64244;SDS011;50584;29.058;-110.966;2023-08-20T00:23:15;2.63;;;1.85;;
64244;SDS011;50584;29.058;-110.966;2023-08-20T00:25:40;1.30;;;1.30;;
64244;SDS011;50584;29.058;-110.966;2023-08-20T00:28:06;5.63;;;2.08;;
64244;SDS011;50584;29.058;-110.966;2023-08-20T00:30:32;3.25;;;2.28;;
64244;SDS011;50584;29.058;-110.966;2023-08-20T00:32:58;7.68;;;2.10;;
64244;SDS011;50584;29.058;-110.966;2023-08-20T00:35:24;2.03;;;1.30;;
64244;SDS011;50584;29.058;-110.966;2023-08-20T00:37:49;3.88;;;1.80;;
64244;SDS011;50584;29.058;-110.966;2023-08-20T00:40:15;2.35;;;1.48;;
64244;SDS011;50584;29.058;-110.966;2023-08-20T00:42:41;1.85;;;1.50;;
64244;SDS011;50584;29.058;-110.966;2023-08-20T00:45:07;1.98;;;1.67;;
64244;SDS011;50584;29.058;-110.966;2023-08-20T00:47:33;1.33;;;1.08;;
64244;SDS011;50584;29.058;-110.966;2023-08-20T00:49:59;3.35;;;1.58;;
64244;SDS011;50584;29.058;-110.966;2023-08-20T00:52:25;1.50;;;1.40;;
64244;SDS011;50584;29.058;-110.966;2023-08-20T00:54:51;1.50;;;1.40;;
64244;SDS011;50584;29.058;-110.966;2023-08-20T00:57:17;4.38;;;1.73;;
64244;SDS011;50584;29.058;-110.966;2023-08-20T00:59:44;2.92;;;1.48;;
64244;SDS011;50584;29.058;-110.966;2023-08-20T01:02:12;2.50;;;1.40;;
64244;SDS011;50584;29.058;-110.966;2023-08-20T01:04:37;2.03;;;1.23;;
64244;SDS011;50584;29.058;-110.966;2023-08-20T01:10:10;1.80;;;1.70;;
64244;SDS011;50584;29.058;-110.966;2023-08-20T01:12:37;1.10;;;1.05;;
64244;SDS011;50584;29.058;-110.966;2023-08-20T01:15:04;2.55;;;1.27;;
64244;SDS011;50584;29.058;-110.966;2023-08-20T01:17:30;1.00;;;1.00;;
64244;SDS011;50584;29.058;-110.966;2023-08-20T01:19:56;1.02;;;1.02;;
64244;SDS011;50584;29.058;-110.966;2023-08-20T01:30:12;1.50;;;1.40;;
64244;SDS011;50584;29.058;-110.966;2023-08-20T01:32:38;2.53;;;2.40;;
64244;SDS011;50584;29.058;-110.966;2023-08-20T01:35:16;2.35;;;2.20;;
64244;SDS011;50584;29.058;-110.966;2023-08-20T01:37:42;2.85;;;2.60;;
64244;SDS011;50584;29.058;-110.966;2023-08-20T01:40:08;3.38;;;2.03;;
64244;SDS011;50584;29.058;-110.966;2023-08-20T01:42:38;6.35;;;5.80;;
64244;SDS011;50584;29.058;-110.966;2023-08-20T01:45:05;3.67;;;2.92;;
64244;SDS011;50584;29.058;-110.966;2023-08-20T01:47:31;3.15;;;2.85;;
64244;SDS011;50584;29.058;-110.966;2023-08-20T01:49:57;4.05;;;3.72;;
64244;SDS011;50584;29.058;-110.966;2023-08-20T01:52:23;4.10;;;2.83;;
64244;SDS011;50584;29.058;-110.966;2023-08-20T01:54:49;4.65;;;2.80;;
64244;SDS011;50584;29.058;-110.966;2023-08-20T01:57:15;4.80;;;3.30;;
64244;SDS011;50584;29.058;-110.966;2023-08-20T01:59:41;6.32;;;5.38;;
64244;SDS011;50584;29.058;-110.966;2023-08-20T02:02:06;13.68;;;9.93;;
64244;SDS011;50584;29.058;-110.966;2023-08-20T02:04:32;3.63;;;3.33;;
64244;SDS011;50584;29.058;-110.966;2023-08-20T02:06:58;3.53;;;3.22;;
64244;SDS011;50584;29.058;-110.966;2023-08-20T02:09:24;3.95;;;3.65;;
64244;SDS011;50584;29.058;-110.966;2023-08-20T02:11:50;4.13;;;3.80;;
64244;SDS011;50584;29.058;-110.966;2023-08-20T02:14:16;3.80;;;3.58;;
64244;SDS011;50584;29.058;-110.966;2023-08-20T02:16:42;4.57;;;4.28;;
64244;SDS011;50584;29.058;-110.966;2023-08-20T02:19:08;4.90;;;4.50;;
64244;SDS011;50584;29.058;-110.966;2023-08-20T02:21:33;3.25;;;2.70;;
64244;SDS011;50584;29.058;-110.966;2023-08-20T02:23:59;2.72;;;2.53;;
64244;SDS011;50584;29.058;-110.966;2023-08-20T02:26:25;5.07;;;3.80;;
64244;SDS011;50584;29.058;-110.966;2023-08-20T02:28:51;3.28;;;2.70;;
64244;SDS011;50584;29.058;-110.966;2023-08-20T02:31:18;4.00;;;2.35;;
64244;SDS011;50584;29.058;-110.966;2023-08-20T02:33:44;1.60;;;1.50;;
64244;SDS011;50584;29.058;-110.966;2023-08-20T02:36:10;2.72;;;2.20;;
64244;SDS011;50584;29.058;-110.966;2023-08-20T02:38:36;4.00;;;3.65;;
64244;SDS011;50584;29.058;-110.966;2023-08-20T02:41:02;2.95;;;2.75;;
64244;SDS011;50584;29.058;-110.966;2023-08-20T02:43:30;7.50;;;5.53;;
64244;SDS011;50584;29.058;-110.966;2023-08-20T02:45:56;7.32;;;2.85;;
64244;SDS011;50584;29.058;-110.966;2023-08-20T02:48:22;4.97;;;2.72;;
64244;SDS011;50584;29.058;-110.966;2023-08-20T02:50:52;9.65;;;5.82;;
64244;SDS011;50584;29.058;-110.966;2023-08-20T02:53:19;2.45;;;2.28;;
64244;SDS011;50584;29.058;-110.966;2023-08-20T02:55:44;6.28;;;1.73;;
64244;SDS011;50584;29.058;-110.966;2023-08-20T02:58:10;1.88;;;1.50;;
64244;SDS011;50584;29.058;-110.966;2023-08-20T03:00:36;3.60;;;1.42;;
64244;SDS011;50584;29.058;-110.966;2023-08-20T03:03:02;1.98;;;1.30;;
64244;SDS011;50584;29.058;-110.966;2023-08-20T03:05:31;1.77;;;1.30;;
64244;SDS011;50584;29.058;-110.966;2023-08-20T03:07:57;5.10;;;1.45;;
64244;SDS011;50584;29.058;-110.966;2023-08-20T03:10:23;2.88;;;1.70;;
64244;SDS011;50584;29.058;-110.966;2023-08-20T03:12:49;3.30;;;2.20;;
64244;SDS011;50584;29.058;-110.966;2023-08-20T03:15:14;4.95;;;1.65;;
64244;SDS011;50584;29.058;-110.966;2023-08-20T03:17:40;5.50;;;1.77;;
64244;SDS011;50584;29.058;-110.966;2023-08-20T03:20:06;1.70;;;1.60;;
64244;SDS011;50584;29.058;-110.966;2023-08-20T03:22:32;6.05;;;1.63;;
64244;SDS011;50584;29.058;-110.966;2023-08-20T03:24:58;4.40;;;1.80;;
64244;SDS011;50584;29.058;-110.966;2023-08-20T03:27:24;1.75;;;1.65;;
64244;SDS011;50584;29.058;-110.966;2023-08-20T03:29:51;4.65;;;2.45;;
64244;SDS011;50584;29.058;-110.966;2023-08-20T03:32:17;5.70;;;2.70;;
64244;SDS011;50584;29.058;-110.966;2023-08-20T03:34:43;2.80;;;1.85;;
64244;SDS011;50584;29.058;-110.966;2023-08-20T03:37:09;1.40;;;1.17;;
64244;SDS011;50584;29.058;-110.966;2023-08-20T03:39:35;3.38;;;1.58;;
64244;SDS011;50584;29.058;-110.966;2023-08-20T03:42:00;1.40;;;1.30;;
64244;SDS011;50584;29.058;-110.966;2023-08-20T03:44:26;2.83;;;2.63;;
64244;SDS011;50584;29.058;-110.966;2023-08-20T03:46:52;8.23;;;4.63;;
64244;SDS011;50584;29.058;-110.966;2023-08-20T03:49:18;2.80;;;1.73;;
64244;SDS011;50584;29.058;-110.966;2023-08-20T03:51:43;2.78;;;2.58;;
64244;SDS011;50584;29.058;-110.966;2023-08-20T03:54:09;3.97;;;3.22;;
64244;SDS011;50584;29.058;-110.966;2023-08-20T03:56:35;1.75;;;1.65;;
64244;SDS011;50584;29.058;-110.966;2023-08-20T03:59:01;1.73;;;1.23;;
64244;SDS011;50584;29.058;-110.966;2023-08-20T04:01:27;1.15;;;1.15;;
64244;SDS011;50584;29.058;-110.966;2023-08-20T04:03:53;1.70;;;1.58;;
64244;SDS011;50584;29.058;-110.966;2023-08-20T04:06:19;2.40;;;1.50;;
64244;SDS011;50584;29.058;-110.966;2023-08-20T04:08:45;2.63;;;1.13;;
64244;SDS011;50584;29.058;-110.966;2023-08-20T04:11:10;1.23;;;1.10;;
64244;SDS011;50584;29.058;-110.966;2023-08-20T04:13:36;1.02;;;1.02;;
64244;SDS011;50584;29.058;-110.966;2023-08-20T04:16:02;1.38;;;1.15;;
64244;SDS011;50584;29.058;-110.966;2023-08-20T04:18:28;1.45;;;1.08;;
64244;SDS011;50584;29.058;-110.966;2023-08-20T04:20:54;7.47;;;1.70;;
64244;SDS011;50584;29.058;-110.966;2023-08-20T04:23:20;3.58;;;1.00;;
64244;SDS011;50584;29.058;-110.966;2023-08-20T04:25:46;3.15;;;0.98;;
64244;SDS011;50584;29.058;-110.966;2023-08-20T04:28:12;1.13;;;1.10;;
64244;SDS011;50584;29.058;-110.966;2023-08-20T04:30:38;1.10;;;1.10;;
64244;SDS011;50584;29.058;-110.966;2023-08-20T04:33:04;1.95;;;1.10;;
64244;SDS011;50584;29.058;-110.966;2023-08-20T04:35:30;1.00;;;1.00;;
64244;SDS011;50584;29.058;-110.966;2023-08-20T04:37:56;2.85;;;1.00;;
64244;SDS011;50584;29.058;-110.966;2023-08-20T04:40:22;1.77;;;1.10;;
64244;SDS011;50584;29.058;-110.966;2023-08-20T04:42:48;1.13;;;1.10;;
64244;SDS011;50584;29.058;-110.966;2023-08-20T04:45:14;1.80;;;1.20;;
64244;SDS011;50584;29.058;-110.966;2023-08-20T04:47:39;0.93;;;0.93;;
64244;SDS011;50584;29.058;-110.966;2023-08-20T04:50:05;1.40;;;1.02;;
64244;SDS011;50584;29.058;-110.966;2023-08-20T04:52:32;1.58;;;1.00;;
64244;SDS011;50584;29.058;-110.966;2023-08-20T04:54:58;1.20;;;1.10;;
64244;SDS011;50584;29.058;-110.966;2023-08-20T04:57:24;1.38;;;1.30;;
64244;SDS011;50584;29.058;-110.966;2023-08-20T04:59:50;2.97;;;1.40;;
64244;SDS011;50584;29.058;-110.966;2023-08-20T05:02:15;3.22;;;1.30;;
64244;SDS011;50584;29.058;-110.966;2023-08-20T05:04:41;1.30;;;1.20;;
64244;SDS011;50584;29.058;-110.966;2023-08-20T05:07:07;2.63;;;1.50;;
64244;SDS011;50584;29.058;-110.966;2023-08-20T05:09:33;2.75;;;1.40;;
64244;SDS011;50584;29.058;-110.966;2023-08-20T05:11:59;1.58;;;1.25;;
64244;SDS011;50584;29.058;-110.966;2023-08-20T05:14:25;3.90;;;1.42;;
64244;SDS011;50584;29.058;-110.966;2023-08-20T05:16:50;1.15;;;1.10;;
64244;SDS011;50584;29.058;-110.966;2023-08-20T05:19:16;3.47;;;1.17;;
64244;SDS011;50584;29.058;-110.966;2023-08-20T05:21:42;2.47;;;1.30;;
64244;SDS011;50584;29.058;-110.966;2023-08-20T05:24:08;1.92;;;1.45;;
64244;SDS011;50584;29.058;-110.966;2023-08-20T05:26:34;4.63;;;1.20;;
64244;SDS011;50584;29.058;-110.966;2023-08-20T05:29:00;1.30;;;1.20;;
64244;SDS011;50584;29.058;-110.966;2023-08-20T05:31:26;1.65;;;1.20;;
64244;SDS011;50584;29.058;-110.966;2023-08-20T05:33:51;1.77;;;1.40;;
64244;SDS011;50584;29.058;-110.966;2023-08-20T05:36:17;2.92;;;1.10;;
64244;SDS011;50584;29.058;-110.966;2023-08-20T05:38:43;3.05;;;1.30;;
64244;SDS011;50584;29.058;-110.966;2023-08-20T05:41:09;4.07;;;1.30;;
64244;SDS011;50584;29.058;-110.966;2023-08-20T05:43:34;1.85;;;1.25;;
64244;SDS011;50584;29.058;-110.966;2023-08-20T05:46:02;1.80;;;1.20;;
64244;SDS011;50584;29.058;-110.966;2023-08-20T05:48:28;1.73;;;1.23;;
64244;SDS011;50584;29.058;-110.966;2023-08-20T05:50:53;2.00;;;1.20;;
64244;SDS011;50584;29.058;-110.966;2023-08-20T05:53:19;1.75;;;1.45;;
64244;SDS011;50584;29.058;-110.966;2023-08-20T05:55:45;3.80;;;1.15;;
64244;SDS011;50584;29.058;-110.966;2023-08-20T05:58:11;7.18;;;1.70;;
64244;SDS011;50584;29.058;-110.966;2023-08-20T06:00:37;3.30;;;2.05;;
64244;SDS011;50584;29.058;-110.966;2023-08-20T06:03:02;3.10;;;2.90;;
64244;SDS011;50584;29.058;-110.966;2023-08-20T06:05:28;9.02;;;2.10;;
64244;SDS011;50584;29.058;-110.966;2023-08-20T06:07:54;2.50;;;1.70;;
64244;SDS011;50584;29.058;-110.966;2023-08-20T06:10:20;5.18;;;1.80;;
64244;SDS011;50584;29.058;-110.966;2023-08-20T06:12:45;4.82;;;2.17;;
64244;SDS011;50584;29.058;-110.966;2023-08-20T06:15:11;2.60;;;1.60;;
64244;SDS011;50584;29.058;-110.966;2023-08-20T06:17:37;1.60;;;1.50;;
64244;SDS011;50584;29.058;-110.966;2023-08-20T06:20:03;1.88;;;1.30;;
64244;SDS011;50584;29.058;-110.966;2023-08-20T06:22:32;6.25;;;1.20;;
64244;SDS011;50584;29.058;-110.966;2023-08-20T06:24:58;2.85;;;1.35;;
64244;SDS011;50584;29.058;-110.966;2023-08-20T06:27:23;2.53;;;1.38;;
64244;SDS011;50584;29.058;-110.966;2023-08-20T06:29:49;3.97;;;1.70;;
64244;SDS011;50584;29.058;-110.966;2023-08-20T06:32:15;4.38;;;1.45;;
64244;SDS011;50584;29.058;-110.966;2023-08-20T06:34:41;6.70;;;1.60;;
64244;SDS011;50584;29.058;-110.966;2023-08-20T06:37:06;1.58;;;1.30;;
64244;SDS011;50584;29.058;-110.966;2023-08-20T06:39:32;2.22;;;1.20;;
64244;SDS011;50584;29.058;-110.966;2023-08-20T06:41:58;5.20;;;1.65;;
64244;SDS011;50584;29.058;-110.966;2023-08-20T06:44:24;1.52;;;1.15;;
64244;SDS011;50584;29.058;-110.966;2023-08-20T06:46:50;4.35;;;1.38;;
64244;SDS011;50584;29.058;-110.966;2023-08-20T06:49:15;2.38;;;2.17;;
64244;SDS011;50584;29.058;-110.966;2023-08-20T06:51:41;3.20;;;1.33;;
64244;SDS011;50584;29.058;-110.966;2023-08-20T06:54:07;3.28;;;1.33;;
64244;SDS011;50584;29.058;-110.966;2023-08-20T06:56:33;4.13;;;1.48;;
64244;SDS011;50584;29.058;-110.966;2023-08-20T06:58:59;3.85;;;1.40;;
64244;SDS011;50584;29.058;-110.966;2023-08-20T07:01:25;2.95;;;1.60;;
64244;SDS011;50584;29.058;-110.966;2023-08-20T07:03:51;1.60;;;1.30;;
64244;SDS011;50584;29.058;-110.966;2023-08-20T07:06:17;3.17;;;1.30;;
64244;SDS011;50584;29.058;-110.966;2023-08-20T07:08:44;1.58;;;1.48;;
64244;SDS011;50584;29.058;-110.966;2023-08-20T07:11:10;2.13;;;1.20;;
64244;SDS011;50584;29.058;-110.966;2023-08-20T07:13:36;5.57;;;1.50;;
64244;SDS011;50584;29.058;-110.966;2023-08-20T07:16:01;3.17;;;1.40;;
64244;SDS011;50584;29.058;-110.966;2023-08-20T07:18:27;4.20;;;1.35;;
64244;SDS011;50584;29.058;-110.966;2023-08-20T07:20:54;4.43;;;1.45;;
64244;SDS011;50584;29.058;-110.966;2023-08-20T07:23:20;5.18;;;1.40;;
64244;SDS011;50584;29.058;-110.966;2023-08-20T07:25:46;2.47;;;1.92;;
64244;SDS011;50584;29.058;-110.966;2023-08-20T07:28:13;3.80;;;1.70;;
64244;SDS011;50584;29.058;-110.966;2023-08-20T07:30:39;3.15;;;1.83;;
64244;SDS011;50584;29.058;-110.966;2023-08-20T07:33:06;1.50;;;1.40;;
64244;SDS011;50584;29.058;-110.966;2023-08-20T07:35:32;2.03;;;1.67;;
64244;SDS011;50584;29.058;-110.966;2023-08-20T07:37:58;3.22;;;1.33;;
64244;SDS011;50584;29.058;-110.966;2023-08-20T07:40:23;4.18;;;1.50;;
64244;SDS011;50584;29.058;-110.966;2023-08-20T07:42:49;1.65;;;1.33;;
64244;SDS011;50584;29.058;-110.966;2023-08-20T07:45:15;2.22;;;1.40;;
64244;SDS011;50584;29.058;-110.966;2023-08-20T07:47:41;4.05;;;1.35;;
64244;SDS011;50584;29.058;-110.966;2023-08-20T07:50:07;3.03;;;1.48;;
64244;SDS011;50584;29.058;-110.966;2023-08-20T07:52:33;6.28;;;1.30;;
64244;SDS011;50584;29.058;-110.966;2023-08-20T07:54:59;1.67;;;1.40;;
64244;SDS011;50584;29.058;-110.966;2023-08-20T07:57:25;2.17;;;1.55;;
64244;SDS011;50584;29.058;-110.966;2023-08-20T07:59:54;2.10;;;1.25;;
64244;SDS011;50584;29.058;-110.966;2023-08-20T08:02:19;3.00;;;1.48;;
64244;SDS011;50584;29.058;-110.966;2023-08-20T08:04:45;3.13;;;1.40;;
64244;SDS011;50584;29.058;-110.966;2023-08-20T08:07:11;4.72;;;1.35;;
64244;SDS011;50584;29.058;-110.966;2023-08-20T08:09:37;2.63;;;1.30;;
64244;SDS011;50584;29.058;-110.966;2023-08-20T08:12:02;2.28;;;1.30;;
64244;SDS011;50584;29.058;-110.966;2023-08-20T08:14:28;5.90;;;1.55;;
64244;SDS011;50584;29.058;-110.966;2023-08-20T08:16:54;3.47;;;1.55;;
64244;SDS011;50584;29.058;-110.966;2023-08-20T08:19:20;3.55;;;1.50;;
64244;SDS011;50584;29.058;-110.966;2023-08-20T08:21:46;1.20;;;1.10;;
64244;SDS011;50584;29.058;-110.966;2023-08-20T08:24:12;5.65;;;1.50;;
64244;SDS011;50584;29.058;-110.966;2023-08-20T08:26:38;2.92;;;1.42;;
64244;SDS011;50584;29.058;-110.966;2023-08-20T08:29:04;4.57;;;1.40;;
64244;SDS011;50584;29.058;-110.966;2023-08-20T08:31:30;7.55;;;1.67;;
64244;SDS011;50584;29.058;-110.966;2023-08-20T08:33:56;1.92;;;1.70;;
64244;SDS011;50584;29.058;-110.966;2023-08-20T08:36:22;2.92;;;1.70;;
64244;SDS011;50584;29.058;-110.966;2023-08-20T08:38:50;2.40;;;2.17;;
64244;SDS011;50584;29.058;-110.966;2023-08-20T08:41:16;5.97;;;1.45;;
64244;SDS011;50584;29.058;-110.966;2023-08-20T08:43:42;3.75;;;1.30;;
64244;SDS011;50584;29.058;-110.966;2023-08-20T08:46:11;3.53;;;1.63;;
64244;SDS011;50584;29.058;-110.966;2023-08-20T08:48:38;5.55;;;1.60;;
64244;SDS011;50584;29.058;-110.966;2023-08-20T08:51:05;2.45;;;1.70;;
64244;SDS011;50584;29.058;-110.966;2023-08-20T08:53:31;4.57;;;1.65;;
64244;SDS011;50584;29.058;-110.966;2023-08-20T08:55:57;1.48;;;1.38;;
64244;SDS011;50584;29.058;-110.966;2023-08-20T08:58:23;5.60;;;1.60;;
64244;SDS011;50584;29.058;-110.966;2023-08-20T09:00:49;4.70;;;1.60;;
64244;SDS011;50584;29.058;-110.966;2023-08-20T09:03:15;3.40;;;1.30;;
64244;SDS011;50584;29.058;-110.966;2023-08-20T09:05:54;2.47;;;1.60;;
64244;SDS011;50584;29.058;-110.966;2023-08-20T09:08:23;4.38;;;1.30;;
64244;SDS011;50584;29.058;-110.966;2023-08-20T09:10:51;6.38;;;1.45;;
64244;SDS011;50584;29.058;-110.966;2023-08-20T09:13:22;4.18;;;1.42;;
64244;SDS011;50584;29.058;-110.966;2023-08-20T09:15:50;7.38;;;1.80;;
64244;SDS011;50584;29.058;-110.966;2023-08-20T09:18:16;7.13;;;1.40;;
64244;SDS011;50584;29.058;-110.966;2023-08-20T09:20:41;7.15;;;1.60;;
64244;SDS011;50584;29.058;-110.966;2023-08-20T09:23:11;5.43;;;1.50;;
64244;SDS011;50584;29.058;-110.966;2023-08-20T09:25:37;8.63;;;2.08;;
64244;SDS011;50584;29.058;-110.966;2023-08-20T09:28:03;3.80;;;1.25;;
64244;SDS011;50584;29.058;-110.966;2023-08-20T09:30:29;1.42;;;1.08;;
64244;SDS011;50584;29.058;-110.966;2023-08-20T09:33:11;3.30;;;1.08;;
64244;SDS011;50584;29.058;-110.966;2023-08-20T09:35:37;5.15;;;1.00;;
64244;SDS011;50584;29.058;-110.966;2023-08-20T09:38:03;5.38;;;1.35;;
64244;SDS011;50584;29.058;-110.966;2023-08-20T09:40:29;2.58;;;1.00;;
64244;SDS011;50584;29.058;-110.966;2023-08-20T09:42:56;3.50;;;1.25;;
64244;SDS011;50584;29.058;-110.966;2023-08-20T09:45:23;5.95;;;0.95;;
64244;SDS011;50584;29.058;-110.966;2023-08-20T09:47:49;4.35;;;1.00;;
64244;SDS011;50584;29.058;-110.966;2023-08-20T09:50:19;6.13;;;1.15;;
64244;SDS011;50584;29.058;-110.966;2023-08-20T09:52:48;2.55;;;1.08;;
64244;SDS011;50584;29.058;-110.966;2023-08-20T09:55:20;8.70;;;1.10;;
64244;SDS011;50584;29.058;-110.966;2023-08-20T09:57:47;2.78;;;1.23;;
64244;SDS011;50584;29.058;-110.966;2023-08-20T10:00:13;5.53;;;1.60;;
64244;SDS011;50584;29.058;-110.966;2023-08-20T10:02:40;1.85;;;1.10;;
64244;SDS011;50584;29.058;-110.966;2023-08-20T10:05:06;3.08;;;1.40;;
64244;SDS011;50584;29.058;-110.966;2023-08-20T10:07:33;5.95;;;1.40;;
64244;SDS011;50584;29.058;-110.966;2023-08-20T10:10:03;7.28;;;1.38;;
64244;SDS011;50584;29.058;-110.966;2023-08-20T10:12:30;4.63;;;1.27;;
64244;SDS011;50584;29.058;-110.966;2023-08-20T10:14:56;6.38;;;1.35;;
64244;SDS011;50584;29.058;-110.966;2023-08-20T10:17:23;6.22;;;1.17;;
64244;SDS011;50584;29.058;-110.966;2023-08-20T10:19:52;1.27;;;1.13;;
64244;SDS011;50584;29.058;-110.966;2023-08-20T10:22:19;2.85;;;1.25;;
64244;SDS011;50584;29.058;-110.966;2023-08-20T10:24:49;6.68;;;1.35;;
64244;SDS011;50584;29.058;-110.966;2023-08-20T10:27:27;5.32;;;1.40;;
64244;SDS011;50584;29.058;-110.966;2023-08-20T10:29:53;1.48;;;0.90;;
64244;SDS011;50584;29.058;-110.966;2023-08-20T10:32:20;3.78;;;1.30;;
64244;SDS011;50584;29.058;-110.966;2023-08-20T10:34:50;14.18;;;1.77;;
64244;SDS011;50584;29.058;-110.966;2023-08-20T10:39:42;9.45;;;1.58;;
64244;SDS011;50584;29.058;-110.966;2023-08-20T10:42:29;18.52;;;1.83;;
64244;SDS011;50584;29.058;-110.966;2023-08-20T10:44:58;11.55;;;1.42;;
64244;SDS011;50584;29.058;-110.966;2023-08-20T10:47:41;5.25;;;1.30;;
64244;SDS011;50584;29.058;-110.966;2023-08-20T10:50:11;11.90;;;1.60;;
64244;SDS011;50584;29.058;-110.966;2023-08-20T10:52:41;5.68;;;1.25;;
64244;SDS011;50584;29.058;-110.966;2023-08-20T10:55:07;1.65;;;1.30;;
64244;SDS011;50584;29.058;-110.966;2023-08-20T10:57:35;5.25;;;1.50;;
64244;SDS011;50584;29.058;-110.966;2023-08-20T11:00:02;4.68;;;1.55;;
64244;SDS011;50584;29.058;-110.966;2023-08-20T11:02:31;2.40;;;1.20;;
64244;SDS011;50584;29.058;-110.966;2023-08-20T11:04:58;12.93;;;1.52;;
64244;SDS011;50584;29.058;-110.966;2023-08-20T11:07:24;5.03;;;1.33;;
64244;SDS011;50584;29.058;-110.966;2023-08-20T11:09:52;2.63;;;1.45;;
64244;SDS011;50584;29.058;-110.966;2023-08-20T11:12:19;4.47;;;1.58;;
64244;SDS011;50584;29.058;-110.966;2023-08-20T11:14:46;3.80;;;1.20;;
64244;SDS011;50584;29.058;-110.966;2023-08-20T11:17:12;2.75;;;1.40;;
64244;SDS011;50584;29.058;-110.966;2023-08-20T11:19:38;7.30;;;1.67;;
64244;SDS011;50584;29.058;-110.966;2023-08-20T11:22:04;4.80;;;1.67;;
64244;SDS011;50584;29.058;-110.966;2023-08-20T11:24:30;3.17;;;1.60;;
64244;SDS011;50584;29.058;-110.966;2023-08-20T11:26:56;4.88;;;1.55;;
64244;SDS011;50584;29.058;-110.966;2023-08-20T11:29:22;6.47;;;1.70;;
64244;SDS011;50584;29.058;-110.966;2023-08-20T11:31:48;10.95;;;2.20;;
64244;SDS011;50584;29.058;-110.966;2023-08-20T11:34:14;11.98;;;2.38;;
64244;SDS011;50584;29.058;-110.966;2023-08-20T11:36:40;6.97;;;1.85;;
64244;SDS011;50584;29.058;-110.966;2023-08-20T11:39:06;3.75;;;1.58;;
64244;SDS011;50584;29.058;-110.966;2023-08-20T11:41:34;3.90;;;1.40;;
64244;SDS011;50584;29.058;-110.966;2023-08-20T11:44:00;4.20;;;1.10;;
64244;SDS011;50584;29.058;-110.966;2023-08-20T11:46:26;4.43;;;1.10;;
64244;SDS011;50584;29.058;-110.966;2023-08-20T11:49:05;3.50;;;1.02;;
64244;SDS011;50584;29.058;-110.966;2023-08-20T11:51:38;1.67;;;0.88;;
64244;SDS011;50584;29.058;-110.966;2023-08-20T11:54:12;6.28;;;1.13;;
64244;SDS011;50584;29.058;-110.966;2023-08-20T11:56:48;2.50;;;1.02;;
64244;SDS011;50584;29.058;-110.966;2023-08-20T11:59:14;1.67;;;0.80;;
64244;SDS011;50584;29.058;-110.966;2023-08-20T12:01:41;2.17;;;1.15;;
64244;SDS011;50584;29.058;-110.966;2023-08-20T12:04:08;2.38;;;1.08;;
64244;SDS011;50584;29.058;-110.966;2023-08-20T12:06:34;3.92;;;1.40;;
64244;SDS011;50584;29.058;-110.966;2023-08-20T12:09:01;3.40;;;1.42;;
64244;SDS011;50584;29.058;-110.966;2023-08-20T12:11:27;1.42;;;1.17;;
64244;SDS011;50584;29.058;-110.966;2023-08-20T12:13:53;1.65;;;0.90;;
64244;SDS011;50584;29.058;-110.966;2023-08-20T12:16:21;2.65;;;1.20;;
64244;SDS011;50584;29.058;-110.966;2023-08-20T12:18:47;2.17;;;1.33;;
64244;SDS011;50584;29.058;-110.966;2023-08-20T12:21:13;2.42;;;1.15;;
64244;SDS011;50584;29.058;-110.966;2023-08-20T12:23:39;7.40;;;1.42;;
64244;SDS011;50584;29.058;-110.966;2023-08-20T12:26:05;1.08;;;0.82;;
64244;SDS011;50584;29.058;-110.966;2023-08-20T12:28:30;1.08;;;0.82;;
64244;SDS011;50584;29.058;-110.966;2023-08-20T12:30:56;1.65;;;0.65;;
64244;SDS011;50584;29.058;-110.966;2023-08-20T12:33:22;2.97;;;1.35;;
64244;SDS011;50584;29.058;-110.966;2023-08-20T12:35:49;2.15;;;1.10;;
64244;SDS011;50584;29.058;-110.966;2023-08-20T12:38:15;1.23;;;0.73;;
64244;SDS011;50584;29.058;-110.966;2023-08-20T12:40:40;3.33;;;0.82;;
64244;SDS011;50584;29.058;-110.966;2023-08-20T12:43:06;4.53;;;1.00;;
64244;SDS011;50584;29.058;-110.966;2023-08-20T12:45:32;2.65;;;0.82;;
64244;SDS011;50584;29.058;-110.966;2023-08-20T12:47:57;1.90;;;0.60;;
64244;SDS011;50584;29.058;-110.966;2023-08-20T12:50:23;2.13;;;0.63;;
64244;SDS011;50584;29.058;-110.966;2023-08-20T12:52:51;9.10;;;0.80;;
64244;SDS011;50584;29.058;-110.966;2023-08-20T12:55:17;2.03;;;0.60;;
64244;SDS011;50584;29.058;-110.966;2023-08-20T12:57:53;1.55;;;0.50;;
64244;SDS011;50584;29.058;-110.966;2023-08-20T13:00:23;0.75;;;0.50;;
64244;SDS011;50584;29.058;-110.966;2023-08-20T13:02:55;0.88;;;0.68;;
64244;SDS011;50584;29.058;-110.966;2023-08-20T13:05:22;0.60;;;0.55;;
64244;SDS011;50584;29.058;-110.966;2023-08-20T13:07:48;1.10;;;0.43;;
64244;SDS011;50584;29.058;-110.966;2023-08-20T13:10:14;1.10;;;0.60;;
64244;SDS011;50584;29.058;-110.966;2023-08-20T13:12:47;0.57;;;0.50;;
64244;SDS011;50584;29.058;-110.966;2023-08-20T13:15:17;0.55;;;0.52;;
64244;SDS011;50584;29.058;-110.966;2023-08-20T13:17:44;0.47;;;0.47;;
64244;SDS011;50584;29.058;-110.966;2023-08-20T13:20:10;0.35;;;0.35;;
64244;SDS011;50584;29.058;-110.966;2023-08-20T13:22:36;0.50;;;0.50;;
64244;SDS011;50584;29.058;-110.966;2023-08-20T13:25:02;0.47;;;0.47;;
64244;SDS011;50584;29.058;-110.966;2023-08-20T13:27:29;0.85;;;0.40;;
64244;SDS011;50584;29.058;-110.966;2023-08-20T13:29:56;0.50;;;0.50;;
64244;SDS011;50584;29.058;-110.966;2023-08-20T13:32:22;1.25;;;0.50;;
64244;SDS011;50584;29.058;-110.966;2023-08-20T13:34:48;3.30;;;0.70;;
64244;SDS011;50584;29.058;-110.966;2023-08-20T13:37:14;4.30;;;1.10;;
64244;SDS011;50584;29.058;-110.966;2023-08-20T13:39:40;1.08;;;0.85;;
64244;SDS011;50584;29.058;-110.966;2023-08-20T13:42:05;1.40;;;0.70;;
64244;SDS011;50584;29.058;-110.966;2023-08-20T13:44:31;4.13;;;0.80;;
64244;SDS011;50584;29.058;-110.966;2023-08-20T13:46:58;0.82;;;0.55;;
64244;SDS011;50584;29.058;-110.966;2023-08-20T13:49:24;1.02;;;0.80;;
64244;SDS011;50584;29.058;-110.966;2023-08-20T13:51:50;0.43;;;0.43;;
64244;SDS011;50584;29.058;-110.966;2023-08-20T13:54:16;0.93;;;0.77;;
64244;SDS011;50584;29.058;-110.966;2023-08-20T13:56:41;0.60;;;0.50;;
64244;SDS011;50584;29.058;-110.966;2023-08-20T13:59:10;0.60;;;0.60;;
64244;SDS011;50584;29.058;-110.966;2023-08-20T14:01:36;1.25;;;0.80;;
64244;SDS011;50584;29.058;-110.966;2023-08-20T14:04:02;4.35;;;0.70;;
64244;SDS011;50584;29.058;-110.966;2023-08-20T14:06:28;1.15;;;0.88;;
64244;SDS011;50584;29.058;-110.966;2023-08-20T14:08:54;1.33;;;0.98;;
64244;SDS011;50584;29.058;-110.966;2023-08-20T14:11:20;0.77;;;0.77;;
64244;SDS011;50584;29.058;-110.966;2023-08-20T14:13:46;1.27;;;0.70;;
64244;SDS011;50584;29.058;-110.966;2023-08-20T14:16:12;0.90;;;0.60;;
64244;SDS011;50584;29.058;-110.966;2023-08-20T14:18:38;2.92;;;0.77;;